createdAt,value
2023-05-19T00:01:03.372Z,66.01
2023-05-19T00:02:12.174Z,66.21
2023-05-19T00:03:21.918Z,66.04
2023-05-19T00:04:31.241Z,65.92
2023-05-19T00:05:41.396Z,66.00
2023-05-19T00:06:54.235Z,65.97
2023-05-19T00:08:01.836Z,66.02
2023-05-19T00:09:10.692Z,65.93
2023-05-19T00:10:22.302Z,65.94
2023-05-19T00:11:30.989Z,66.05
2023-05-19T00:12:38.823Z,66.00
2023-05-19T00:13:48.830Z,66.22
2023-05-19T00:14:58.492Z,66.20
2023-05-19T00:16:07.484Z,66.16
2023-05-19T00:17:14.514Z,66.23
2023-05-19T00:18:21.189Z,66.42
2023-05-19T00:19:32.714Z,66.44
2023-05-19T00:20:38.974Z,66.33
2023-05-19T00:21:45.222Z,66.56
2023-05-19T00:22:51.426Z,66.53
2023-05-19T00:23:58.706Z,66.68
2023-05-19T00:25:06.865Z,66.68
2023-05-19T00:26:13.503Z,66.53
2023-05-19T00:27:19.840Z,66.61
2023-05-19T00:28:26.266Z,66.55
2023-05-19T00:29:33.034Z,66.58
2023-05-19T00:30:39.011Z,66.57
2023-05-19T00:31:46.425Z,66.61
2023-05-19T00:32:54.406Z,66.63
2023-05-19T00:34:01.509Z,66.81
2023-05-19T00:35:09.896Z,66.62
2023-05-19T00:36:15.913Z,66.69
2023-05-19T00:37:22.941Z,66.60
2023-05-19T00:38:31.504Z,66.60
2023-05-19T00:39:37.619Z,66.53
2023-05-19T00:40:44.149Z,66.84
2023-05-19T00:41:50.462Z,66.90
2023-05-19T00:42:56.407Z,67.10
2023-05-19T00:44:04.258Z,66.98
2023-05-19T00:45:11.796Z,67.00
2023-05-19T00:46:18.495Z,67.00
2023-05-19T00:47:24.906Z,66.96
2023-05-19T00:48:31.121Z,67.00
2023-05-19T00:49:38.150Z,67.02
2023-05-19T00:50:48.519Z,67.04
2023-05-19T00:51:53.426Z,67.15
2023-05-19T00:52:59.783Z,67.17
2023-05-19T00:54:08.070Z,67.19
2023-05-19T00:55:15.842Z,67.22
2023-05-19T00:56:23.572Z,67.29
2023-05-19T00:57:33.210Z,67.31
2023-05-19T00:58:39.309Z,67.42
2023-05-19T00:59:45.903Z,67.40
2023-05-19T01:00:54.591Z,67.49
2023-05-19T01:02:03.142Z,67.66
2023-05-19T01:03:13.049Z,67.91
2023-05-19T01:04:21.915Z,68.05
2023-05-19T01:05:28.435Z,68.04
2023-05-19T01:06:35.114Z,68.15
2023-05-19T01:07:43.284Z,68.07
2023-05-19T01:08:49.156Z,68.04
2023-05-19T01:09:55.637Z,68.05
2023-05-19T01:11:03.128Z,68.14
2023-05-19T01:12:10.734Z,68.23
2023-05-19T01:13:17.564Z,68.31
2023-05-19T01:14:23.842Z,68.38
2023-05-19T01:15:34.468Z,68.39
2023-05-19T01:16:47.918Z,68.32
2023-05-19T01:17:59.403Z,68.39
2023-05-19T01:19:18.097Z,68.58
2023-05-19T01:20:32.806Z,68.61
2023-05-19T01:22:23.034Z,68.57
2023-05-19T01:23:40.980Z,68.73
2023-05-19T01:25:20.002Z,68.78
2023-05-19T01:27:10.741Z,68.94
2023-05-19T01:28:32.341Z,68.98
2023-05-19T01:29:55.220Z,69.03
2023-05-19T01:31:06.067Z,69.10
2023-05-19T01:32:15.169Z,69.17
2023-05-19T01:33:24.256Z,69.11
2023-05-19T01:34:34.139Z,69.10
2023-05-19T01:35:42.036Z,69.13
2023-05-19T01:36:51.369Z,69.20
2023-05-19T01:38:02.492Z,69.22
2023-05-19T01:39:08.672Z,69.25
2023-05-19T01:40:17.373Z,69.37
2023-05-19T01:41:22.839Z,69.44
2023-05-19T01:42:30.204Z,69.67
2023-05-19T01:43:37.459Z,69.69
2023-05-19T01:44:44.851Z,69.84
2023-05-19T01:45:50.994Z,69.89
2023-05-19T01:46:57.496Z,69.94
2023-05-19T01:48:09.983Z,69.92
2023-05-19T01:49:17.072Z,69.89
2023-05-19T01:50:24.025Z,69.96
2023-05-19T01:51:31.490Z,69.90
2023-05-19T01:52:38.051Z,69.91
2023-05-19T01:53:44.247Z,69.91
2023-05-19T01:54:50.528Z,69.89
2023-05-19T01:55:59.838Z,69.96
2023-05-19T01:57:24.557Z,70.11
2023-05-19T01:58:40.772Z,70.05
2023-05-19T01:59:59.923Z,70.17
2023-05-19T02:01:18.303Z,70.04
2023-05-19T02:02:36.144Z,70.13
2023-05-19T02:04:11.825Z,70.11
2023-05-19T02:05:29.789Z,70.28
2023-05-19T02:06:47.899Z,70.40
2023-05-19T02:08:03.673Z,70.38
2023-05-19T02:09:16.899Z,70.32
2023-05-19T02:10:31.419Z,70.32
2023-05-19T02:11:42.490Z,70.51
2023-05-19T02:12:52.730Z,70.53
2023-05-19T02:14:03.566Z,70.57
2023-05-19T02:15:15.722Z,70.75
2023-05-19T02:16:25.646Z,70.77
2023-05-19T02:17:36.408Z,70.83
2023-05-19T02:18:45.868Z,71.09
2023-05-19T02:19:53.047Z,71.06
2023-05-19T02:20:59.463Z,70.97
2023-05-19T02:22:07.723Z,71.04
2023-05-19T02:23:13.546Z,70.94
2023-05-19T02:24:23.205Z,71.02
2023-05-19T02:25:29.421Z,70.84
2023-05-19T02:26:35.836Z,70.75
2023-05-19T02:27:43.845Z,70.69
2023-05-19T02:28:49.542Z,70.68
2023-05-19T02:29:57.028Z,70.73
2023-05-19T02:31:09.799Z,70.58
2023-05-19T02:32:19.664Z,70.63
2023-05-19T02:33:26.424Z,70.59
2023-05-19T02:34:32.764Z,70.56
2023-05-19T02:35:39.124Z,70.68
2023-05-19T02:36:45.509Z,70.61
2023-05-19T02:37:51.662Z,70.57
2023-05-19T02:38:57.979Z,70.52
2023-05-19T02:40:04.489Z,70.54
2023-05-19T02:41:10.949Z,70.46
2023-05-19T02:42:20.473Z,70.39
2023-05-19T02:43:26.708Z,70.35
2023-05-19T02:44:32.470Z,70.38
2023-05-19T02:45:38.473Z,70.37
2023-05-19T02:46:46.104Z,70.22
2023-05-19T02:47:52.721Z,70.20
2023-05-19T02:49:00.006Z,70.17
2023-05-19T02:50:08.242Z,70.12
2023-05-19T02:51:14.241Z,69.97
2023-05-19T02:52:20.225Z,70.02
2023-05-19T02:53:27.229Z,70.09
2023-05-19T02:54:34.081Z,70.07
2023-05-19T02:55:40.296Z,70.02
2023-05-19T02:56:47.603Z,69.93
2023-05-19T02:57:53.561Z,69.88
2023-05-19T02:58:59.664Z,69.80
2023-05-19T03:00:09.537Z,69.76
2023-05-19T03:01:15.870Z,69.69
2023-05-19T03:02:22.186Z,69.75
2023-05-19T03:03:28.834Z,69.75
2023-05-19T03:04:42.243Z,69.70
2023-05-19T03:05:48.784Z,69.84
2023-05-19T03:06:54.862Z,70.09
2023-05-19T03:08:00.784Z,70.01
2023-05-19T03:09:07.667Z,70.13
2023-05-19T03:10:13.890Z,70.14
2023-05-19T03:11:20.387Z,70.12
2023-05-19T03:12:26.655Z,70.05
2023-05-19T03:13:33.034Z,70.04
2023-05-19T03:14:39.219Z,70.05
2023-05-19T03:15:45.306Z,70.06
2023-05-19T03:16:51.539Z,69.95
2023-05-19T03:17:58.210Z,69.81
2023-05-19T03:19:04.206Z,69.78
2023-05-19T03:20:16.052Z,69.82
2023-05-19T03:21:22.297Z,69.89
2023-05-19T03:22:28.902Z,69.91
2023-05-19T03:23:35.329Z,70.00
2023-05-19T03:24:41.298Z,69.78
2023-05-19T03:25:47.807Z,69.79
2023-05-19T03:26:55.027Z,69.60
2023-05-19T03:28:01.748Z,69.26
2023-05-19T03:29:08.184Z,69.03
2023-05-19T03:30:15.675Z,68.92
2023-05-19T03:31:22.281Z,68.94
2023-05-19T03:32:28.429Z,68.52
2023-05-19T03:33:35.311Z,68.35
2023-05-19T03:34:41.281Z,68.25
2023-05-19T03:35:47.539Z,68.18
2023-05-19T03:36:53.752Z,68.04
2023-05-19T03:37:59.564Z,67.93
2023-05-19T03:39:07.330Z,67.88
2023-05-19T03:40:15.918Z,67.66
2023-05-19T03:41:24.621Z,67.56
2023-05-19T03:42:30.989Z,67.48
2023-05-19T03:43:36.998Z,67.41
2023-05-19T03:44:44.664Z,67.28
2023-05-19T03:45:53.031Z,67.28
2023-05-19T03:47:01.555Z,67.21
2023-05-19T03:48:08.808Z,67.24
2023-05-19T03:49:15.229Z,67.11
2023-05-19T03:50:24.337Z,67.27
2023-05-19T03:51:31.663Z,67.23
2023-05-19T03:52:41.026Z,67.18
2023-05-19T03:53:50.842Z,67.27
2023-05-19T03:54:58.680Z,67.23
2023-05-19T03:56:07.629Z,67.20
2023-05-19T03:57:14.002Z,67.32
2023-05-19T03:58:19.869Z,67.64
2023-05-19T03:59:26.553Z,67.59
2023-05-19T04:00:34.190Z,68.13
2023-05-19T04:01:41.214Z,68.09
2023-05-19T04:02:47.350Z,67.96
2023-05-19T04:03:54.209Z,68.13
2023-05-19T04:05:01.209Z,68.38
2023-05-19T04:06:08.997Z,68.35
2023-05-19T04:07:14.804Z,68.47
2023-05-19T04:08:20.663Z,68.38
2023-05-19T04:09:29.072Z,68.31
2023-05-19T04:10:35.127Z,68.16
2023-05-19T04:11:41.569Z,68.33
2023-05-19T04:12:48.015Z,68.64
2023-05-19T04:13:54.282Z,68.68
2023-05-19T04:15:00.594Z,68.67
2023-05-19T04:16:10.391Z,68.38
2023-05-19T04:17:16.427Z,68.07
2023-05-19T04:18:22.823Z,68.17
2023-05-19T04:19:29.200Z,68.07
2023-05-19T04:20:37.356Z,67.88
2023-05-19T04:21:44.273Z,67.72
2023-05-19T04:22:50.795Z,67.60
2023-05-19T04:23:59.294Z,67.77
2023-05-19T04:25:06.134Z,67.57
2023-05-19T04:26:15.460Z,67.06
2023-05-19T04:27:22.230Z,66.92
2023-05-19T04:28:28.983Z,66.50
2023-05-19T04:29:35.694Z,66.13
2023-05-19T04:30:42.707Z,65.99
2023-05-19T04:31:49.166Z,65.88
2023-05-19T04:32:59.519Z,65.31
2023-05-19T04:34:05.589Z,66.14
2023-05-19T04:35:13.945Z,65.81
2023-05-19T04:36:22.388Z,65.73
2023-05-19T04:37:31.356Z,65.89
2023-05-19T04:38:42.911Z,65.24
2023-05-19T04:39:48.893Z,65.27
2023-05-19T04:40:56.665Z,64.70
2023-05-19T04:42:03.331Z,64.27
2023-05-19T04:43:11.380Z,64.25
2023-05-19T04:44:18.873Z,64.03
2023-05-19T04:45:28.082Z,64.27
2023-05-19T04:46:34.079Z,64.09
2023-05-19T04:48:51.032Z,63.97
2023-05-19T04:49:57.135Z,63.90
2023-05-19T04:51:04.036Z,63.53
2023-05-19T04:52:11.230Z,63.63
2023-05-19T04:53:17.897Z,62.94
2023-05-19T04:54:24.200Z,62.14
2023-05-19T04:55:30.427Z,61.65
2023-05-19T04:56:36.807Z,60.67
2023-05-19T04:57:43.601Z,60.51
2023-05-19T04:58:52.033Z,60.23
2023-05-19T05:00:00.287Z,59.83
2023-05-19T05:01:07.020Z,59.60
2023-05-19T05:02:13.062Z,59.26
2023-05-19T05:03:26.746Z,59.07
2023-05-19T05:04:33.641Z,59.21
2023-05-19T05:05:39.772Z,58.94
2023-05-19T05:06:48.882Z,59.03
2023-05-19T05:07:55.135Z,58.98
2023-05-19T05:09:04.472Z,59.22
2023-05-19T05:10:13.070Z,59.12
2023-05-19T05:11:23.351Z,59.15
2023-05-19T05:12:31.044Z,59.17
2023-05-19T05:13:38.538Z,59.09
2023-05-19T05:14:46.549Z,59.12
2023-05-19T05:15:56.076Z,59.14
2023-05-19T05:17:05.046Z,58.93
2023-05-19T05:18:12.911Z,59.01
2023-05-19T05:19:24.171Z,58.84
2023-05-19T05:20:34.425Z,59.01
2023-05-19T05:21:47.947Z,59.23
2023-05-19T05:22:55.454Z,59.31
2023-05-19T05:24:03.901Z,59.30
2023-05-19T05:25:12.706Z,59.33
2023-05-19T05:26:20.290Z,59.26
2023-05-19T05:27:27.165Z,59.24
2023-05-19T05:28:33.497Z,59.38
2023-05-19T05:29:39.652Z,59.43
2023-05-19T05:30:47.311Z,59.54
2023-05-19T05:31:53.537Z,59.69
2023-05-19T05:33:00.277Z,59.90
2023-05-19T05:34:06.794Z,59.97
2023-05-19T05:35:16.166Z,60.10
2023-05-19T05:36:22.425Z,60.18
2023-05-19T05:37:31.497Z,60.23
2023-05-19T05:38:37.873Z,60.46
2023-05-19T05:39:43.934Z,60.99
2023-05-19T05:40:49.715Z,61.02
2023-05-19T05:41:56.016Z,60.81
2023-05-19T05:43:02.453Z,60.06
2023-05-19T05:44:08.839Z,59.73
2023-05-19T05:45:14.866Z,59.49
2023-05-19T05:46:21.302Z,59.12
2023-05-19T05:47:29.575Z,58.91
2023-05-19T05:48:39.020Z,58.88
2023-05-19T05:49:49.919Z,58.76
2023-05-19T05:51:00.389Z,58.64
2023-05-19T05:52:07.068Z,58.61
2023-05-19T05:53:20.673Z,58.54
2023-05-19T05:54:28.992Z,58.61
2023-05-19T05:55:36.943Z,58.51
2023-05-19T05:56:45.034Z,58.55
2023-05-19T05:57:52.611Z,58.63
2023-05-19T05:58:59.045Z,58.41
2023-05-19T06:00:28.764Z,58.16
2023-05-19T06:01:37.368Z,57.66
2023-05-19T06:02:46.549Z,57.25
2023-05-19T06:03:52.818Z,56.94
2023-05-19T06:04:59.172Z,57.04
2023-05-19T06:06:07.439Z,56.72
2023-05-19T06:07:13.844Z,56.70
2023-05-19T06:08:20.305Z,56.86
2023-05-19T06:09:27.902Z,56.85
2023-05-19T06:10:36.002Z,56.96
2023-05-19T06:11:42.456Z,56.79
2023-05-19T06:12:48.435Z,56.49
2023-05-19T06:13:54.586Z,56.45
2023-05-19T06:15:01.051Z,56.14
2023-05-19T06:16:08.388Z,55.95
2023-05-19T06:17:14.761Z,55.89
2023-05-19T06:18:21.523Z,55.81
2023-05-19T06:19:27.854Z,55.60
2023-05-19T06:20:34.902Z,55.63
2023-05-19T06:21:43.228Z,55.37
2023-05-19T06:22:49.419Z,55.54
2023-05-19T06:23:56.133Z,55.44
2023-05-19T06:25:03.684Z,54.81
2023-05-19T06:26:09.875Z,54.49
2023-05-19T06:27:15.990Z,54.12
2023-05-19T06:28:22.383Z,53.73
2023-05-19T06:29:29.120Z,53.54
2023-05-19T06:30:37.985Z,53.76
2023-05-19T06:31:44.385Z,53.34
2023-05-19T06:32:50.906Z,53.06
2023-05-19T06:33:57.323Z,52.46
2023-05-19T06:35:05.496Z,52.26
2023-05-19T06:36:12.364Z,52.50
2023-05-19T06:37:21.137Z,52.44
2023-05-19T06:38:27.708Z,52.27
2023-05-19T06:39:33.641Z,51.86
2023-05-19T06:40:40.688Z,51.76
2023-05-19T06:41:47.733Z,51.83
2023-05-19T06:42:53.997Z,51.77
2023-05-19T06:44:00.366Z,51.44
2023-05-19T06:45:09.546Z,51.73
2023-05-19T06:46:18.014Z,51.82
2023-05-19T06:47:24.606Z,52.11
2023-05-19T06:48:30.692Z,52.24
2023-05-19T06:49:36.741Z,51.24
2023-05-19T06:50:45.078Z,51.01
2023-05-19T06:51:51.366Z,51.54
2023-05-19T06:52:58.493Z,51.92
2023-05-19T06:54:05.012Z,51.85
2023-05-19T06:55:11.673Z,52.14
2023-05-19T06:56:19.975Z,52.45
2023-05-19T06:57:26.458Z,52.45
2023-05-19T06:58:32.315Z,52.63
2023-05-19T06:59:41.098Z,52.66
2023-05-19T07:00:46.339Z,52.39
2023-05-19T07:01:52.489Z,52.12
2023-05-19T07:02:58.758Z,51.97
2023-05-19T07:04:06.513Z,52.14
2023-05-19T07:05:13.176Z,51.76
2023-05-19T07:06:19.233Z,51.50
2023-05-19T07:07:27.941Z,51.77
2023-05-19T07:08:34.911Z,51.94
2023-05-19T07:09:40.932Z,51.45
2023-05-19T07:10:46.758Z,51.12
2023-05-19T07:11:53.064Z,51.16
2023-05-19T07:12:59.617Z,50.84
2023-05-19T07:14:06.493Z,50.52
2023-05-19T07:15:13.802Z,49.89
2023-05-19T07:16:19.850Z,49.33
2023-05-19T07:17:26.034Z,49.14
2023-05-19T07:18:32.268Z,49.18
2023-05-19T07:19:38.183Z,48.99
2023-05-19T07:20:44.863Z,49.48
2023-05-19T07:21:51.044Z,49.75
2023-05-19T07:22:57.359Z,49.67
2023-05-19T07:24:04.347Z,49.87
2023-05-19T07:25:12.315Z,49.87
2023-05-19T07:26:20.947Z,50.01
2023-05-19T07:27:31.400Z,49.62
2023-05-19T07:28:40.772Z,49.67
2023-05-19T07:29:47.888Z,49.93
2023-05-19T07:30:55.110Z,49.96
2023-05-19T07:32:01.577Z,50.08
2023-05-19T07:33:08.440Z,50.37
2023-05-19T07:34:15.583Z,50.64
2023-05-19T07:35:24.891Z,50.73
2023-05-19T07:36:31.372Z,49.88
2023-05-19T07:37:38.450Z,49.29
2023-05-19T07:38:46.660Z,49.64
2023-05-19T07:39:52.783Z,49.39
2023-05-19T07:40:59.269Z,49.33
2023-05-19T07:42:06.419Z,49.12
2023-05-19T07:43:12.467Z,48.97
2023-05-19T07:44:18.848Z,48.95
2023-05-19T07:45:24.810Z,49.28
2023-05-19T07:46:31.298Z,49.52
2023-05-19T07:47:37.346Z,48.43
2023-05-19T07:48:43.895Z,47.88
2023-05-19T07:49:51.765Z,47.24
2023-05-19T07:50:58.216Z,46.59
2023-05-19T07:52:04.429Z,45.93
2023-05-19T07:53:11.536Z,46.03
2023-05-19T07:54:18.546Z,45.93
2023-05-19T07:55:24.634Z,45.91
2023-05-19T07:56:30.605Z,46.40
2023-05-19T07:57:40.195Z,46.25
2023-05-19T07:58:46.424Z,44.53
2023-05-19T07:59:52.893Z,44.68
2023-05-19T08:01:02.486Z,44.69
2023-05-19T08:02:11.003Z,44.31
2023-05-19T08:03:18.935Z,44.19
2023-05-19T08:04:26.867Z,43.75
2023-05-19T08:05:32.773Z,44.53
2023-05-19T08:06:39.943Z,44.58
2023-05-19T08:07:45.944Z,44.65
2023-05-19T08:08:55.811Z,45.31
2023-05-19T08:10:01.991Z,45.50
2023-05-19T08:11:08.277Z,45.23
2023-05-19T08:12:15.496Z,44.11
2023-05-19T08:13:21.951Z,43.48
2023-05-19T08:14:28.045Z,43.89
2023-05-19T08:15:36.522Z,44.29
2023-05-19T08:16:45.047Z,44.83
2023-05-19T08:17:53.340Z,44.40
2023-05-19T08:19:02.839Z,44.69
2023-05-19T08:20:12.537Z,44.74
2023-05-19T08:21:18.870Z,44.73
2023-05-19T08:22:24.896Z,44.38
2023-05-19T08:23:31.071Z,43.96
2023-05-19T08:24:37.558Z,43.74
2023-05-19T08:25:43.488Z,44.20
2023-05-19T08:26:50.112Z,43.93
2023-05-19T08:27:56.580Z,44.03
2023-05-19T08:29:02.749Z,43.94
2023-05-19T08:30:11.336Z,43.57
2023-05-19T08:31:19.428Z,43.57
2023-05-19T08:32:26.038Z,43.72
2023-05-19T08:33:33.128Z,43.24
2023-05-19T08:34:39.353Z,42.70
2023-05-19T08:35:46.321Z,42.68
2023-05-19T08:36:55.574Z,42.44
2023-05-19T08:38:01.556Z,42.66
2023-05-19T08:39:07.608Z,42.42
2023-05-19T08:40:18.524Z,42.47
2023-05-19T08:41:24.929Z,42.62
2023-05-19T08:42:33.574Z,42.61
2023-05-19T08:43:40.122Z,42.38
2023-05-19T08:44:46.696Z,42.16
2023-05-19T08:45:54.680Z,42.09
2023-05-19T08:47:12.807Z,42.20
2023-05-19T08:48:20.437Z,42.24
2023-05-19T08:49:31.783Z,41.77
2023-05-19T08:50:44.292Z,42.17
2023-05-19T08:51:57.195Z,42.07
2023-05-19T08:53:28.979Z,41.89
2023-05-19T08:54:51.264Z,42.08
2023-05-19T08:56:10.434Z,41.96
2023-05-19T08:57:17.491Z,42.12
2023-05-19T08:58:24.039Z,41.78
2023-05-19T08:59:31.188Z,41.84
2023-05-19T09:00:38.831Z,42.07
2023-05-19T09:01:47.163Z,41.90
2023-05-19T09:03:01.419Z,42.08
2023-05-19T09:04:21.211Z,42.32
2023-05-19T09:05:27.950Z,42.73
2023-05-19T09:06:35.171Z,42.96
2023-05-19T09:07:44.262Z,42.73
2023-05-19T09:08:50.353Z,42.93
2023-05-19T09:09:56.914Z,43.20
2023-05-19T09:11:03.580Z,42.90
2023-05-19T09:12:10.363Z,42.37
2023-05-19T09:13:16.916Z,42.34
2023-05-19T09:14:23.593Z,42.36
2023-05-19T09:15:31.966Z,42.05
2023-05-19T09:16:39.447Z,41.97
2023-05-19T09:17:49.192Z,41.80
2023-05-19T09:18:59.678Z,41.56
2023-05-19T09:20:11.887Z,41.88
2023-05-19T09:21:20.230Z,42.29
2023-05-19T09:22:28.248Z,42.09
2023-05-19T09:23:35.827Z,41.73
2023-05-19T09:24:45.691Z,41.54
2023-05-19T09:25:53.303Z,40.78
2023-05-19T09:27:00.851Z,39.75
2023-05-19T09:28:11.113Z,39.90
2023-05-19T09:29:19.290Z,40.22
2023-05-19T09:30:26.384Z,40.02
2023-05-19T09:31:36.022Z,40.26
2023-05-19T09:32:42.322Z,40.02
2023-05-19T09:33:54.588Z,39.43
2023-05-19T09:35:03.205Z,38.66
2023-05-19T09:36:11.645Z,38.85
2023-05-19T09:37:22.461Z,38.99
2023-05-19T09:38:30.625Z,39.21
2023-05-19T09:39:40.292Z,39.15
2023-05-19T09:40:49.956Z,39.51
2023-05-19T09:41:59.646Z,38.76
2023-05-19T09:43:11.759Z,39.25
2023-05-19T09:44:28.975Z,39.31
2023-05-19T09:45:36.190Z,39.56
2023-05-19T09:46:49.942Z,39.74
2023-05-19T09:48:04.928Z,40.06
2023-05-19T09:49:16.129Z,39.49
2023-05-19T09:50:22.932Z,39.81
2023-05-19T09:51:29.645Z,39.91
2023-05-19T09:52:43.266Z,40.05
2023-05-19T09:53:52.490Z,39.92
2023-05-19T09:55:00.297Z,40.16
2023-05-19T09:56:08.895Z,39.78
2023-05-19T09:57:15.338Z,39.53
2023-05-19T09:58:22.407Z,39.33
2023-05-19T09:59:32.571Z,39.16
2023-05-19T10:00:43.471Z,39.01
2023-05-19T10:01:50.406Z,39.01
2023-05-19T10:02:57.963Z,38.67
2023-05-19T10:04:07.305Z,38.45
2023-05-19T10:05:17.910Z,38.53
2023-05-19T10:06:26.214Z,38.42
2023-05-19T10:07:34.325Z,37.75
2023-05-19T10:08:43.657Z,37.07
2023-05-19T10:09:53.043Z,36.70
2023-05-19T10:11:00.142Z,36.46
2023-05-19T10:12:11.344Z,36.39
2023-05-19T10:13:21.465Z,36.54
2023-05-19T10:14:29.982Z,36.72
2023-05-19T10:15:53.707Z,36.35
2023-05-19T10:17:04.141Z,35.12
2023-05-19T10:18:13.555Z,35.33
2023-05-19T10:19:24.017Z,35.29
2023-05-19T10:20:31.187Z,34.44
2023-05-19T10:21:37.744Z,35.12
2023-05-19T10:22:50.290Z,35.48
2023-05-19T10:23:56.602Z,35.28
2023-05-19T10:25:02.896Z,34.82
2023-05-19T10:26:12.641Z,34.54
2023-05-19T10:27:20.118Z,34.66
2023-05-19T10:28:32.156Z,34.38
2023-05-19T10:29:43.454Z,33.82
2023-05-19T10:30:53.905Z,32.32
2023-05-19T10:32:06.744Z,29.80
2023-05-19T10:33:17.341Z,30.00
2023-05-19T10:34:51.802Z,30.04
2023-05-19T10:36:16.127Z,30.09
2023-05-19T10:37:31.903Z,30.52
2023-05-19T10:38:50.227Z,31.16
2023-05-19T10:39:58.446Z,29.15
2023-05-19T10:41:13.044Z,29.35
2023-05-19T10:42:35.281Z,30.02
2023-05-19T10:43:52.896Z,30.56
2023-05-19T10:45:14.360Z,30.45
2023-05-19T10:46:23.146Z,31.03
2023-05-19T10:47:30.170Z,30.93
2023-05-19T10:48:36.758Z,31.00
2023-05-19T10:49:43.104Z,31.59
2023-05-19T10:50:53.132Z,31.50
2023-05-19T10:52:00.830Z,30.53
2023-05-19T10:53:14.166Z,31.08
2023-05-19T10:54:46.278Z,30.98
2023-05-19T10:56:07.684Z,31.96
2023-05-19T10:57:18.302Z,32.36
2023-05-19T10:58:50.501Z,32.49
2023-05-19T10:59:57.798Z,33.08
2023-05-19T11:01:09.314Z,33.66
2023-05-19T11:02:42.154Z,33.48
2023-05-19T11:03:53.275Z,32.38
2023-05-19T11:05:09.467Z,32.18
2023-05-19T11:06:30.865Z,31.98
2023-05-19T11:07:37.422Z,32.45
2023-05-19T11:08:44.245Z,32.66
2023-05-19T11:09:54.014Z,33.15
2023-05-19T11:11:15.752Z,33.88
2023-05-19T11:12:25.475Z,33.01
2023-05-19T11:13:36.703Z,32.20
2023-05-19T11:14:44.431Z,32.92
2023-05-19T11:15:50.437Z,32.51
2023-05-19T11:17:00.722Z,33.17
2023-05-19T11:18:07.764Z,33.30
2023-05-19T11:19:20.309Z,33.10
2023-05-19T11:20:32.446Z,32.51
2023-05-19T11:21:55.472Z,32.66
2023-05-19T11:23:07.175Z,32.74
2023-05-19T11:24:41.075Z,31.96
2023-05-19T11:25:52.224Z,32.52
2023-05-19T11:26:59.985Z,33.19
2023-05-19T11:28:06.885Z,32.77
2023-05-19T11:29:13.076Z,32.64
2023-05-19T11:30:20.355Z,32.41
2023-05-19T11:31:28.581Z,32.03
2023-05-19T11:32:36.031Z,32.51
2023-05-19T11:33:42.663Z,32.67
2023-05-19T11:34:52.715Z,32.21
2023-05-19T11:36:00.423Z,32.11
2023-05-19T11:37:08.635Z,31.79
2023-05-19T11:38:15.382Z,31.31
2023-05-19T11:39:22.215Z,31.50
2023-05-19T11:40:29.738Z,31.76
2023-05-19T11:41:41.913Z,29.23
2023-05-19T11:42:48.507Z,28.27
2023-05-19T11:43:55.356Z,28.73
2023-05-19T11:45:01.658Z,28.71
2023-05-19T11:46:10.093Z,29.02
2023-05-19T11:47:17.986Z,29.44
2023-05-19T11:48:26.903Z,30.15
2023-05-19T11:49:33.822Z,31.03
2023-05-19T11:50:44.643Z,30.98
2023-05-19T11:51:51.297Z,29.93
2023-05-19T11:52:59.920Z,27.72
2023-05-19T11:54:06.709Z,28.04
2023-05-19T11:55:17.909Z,29.12
2023-05-19T11:56:25.322Z,29.51
2023-05-19T11:57:31.200Z,28.89
2023-05-19T11:58:39.363Z,28.61
2023-05-19T11:59:55.290Z,29.11
2023-05-19T12:01:07.434Z,28.46
2023-05-19T12:02:21.429Z,27.55
2023-05-19T12:03:28.796Z,26.96
2023-05-19T12:04:36.829Z,27.83
2023-05-19T12:05:47.150Z,29.15
2023-05-19T12:06:55.516Z,29.18
2023-05-19T12:08:02.865Z,28.93
2023-05-19T12:09:09.888Z,28.13
2023-05-19T12:10:20.442Z,28.19
2023-05-19T12:11:28.340Z,27.85
2023-05-19T12:12:36.306Z,28.12
2023-05-19T12:13:42.457Z,27.53
2023-05-19T12:14:53.761Z,27.57
2023-05-19T12:16:03.852Z,27.31
2023-05-19T12:17:16.661Z,27.40
2023-05-19T12:18:22.762Z,28.01
2023-05-19T12:19:28.943Z,28.22
2023-05-19T12:20:36.632Z,28.60
2023-05-19T12:21:43.252Z,28.13
2023-05-19T12:22:51.178Z,27.79
2023-05-19T12:23:59.236Z,28.05
2023-05-19T12:25:07.131Z,28.46
2023-05-19T12:26:13.079Z,28.83
2023-05-19T12:27:27.627Z,28.75
2023-05-19T12:28:33.632Z,28.95
2023-05-19T12:29:40.328Z,27.63
2023-05-19T12:30:52.960Z,28.16
2023-05-19T12:32:03.097Z,27.69
2023-05-19T12:33:13.250Z,27.84
2023-05-19T12:34:19.104Z,28.27
2023-05-19T12:35:29.831Z,28.57
2023-05-19T12:36:35.692Z,28.48
2023-05-19T12:37:45.650Z,28.65
2023-05-19T12:38:57.625Z,29.15
2023-05-19T12:40:05.828Z,27.62
2023-05-19T12:41:15.611Z,26.36
2023-05-19T12:42:22.834Z,25.10
2023-05-19T12:43:28.877Z,25.53
2023-05-19T12:44:40.795Z,25.62
2023-05-19T12:45:47.591Z,24.52
2023-05-19T12:46:57.426Z,24.64
2023-05-19T12:48:07.261Z,25.08
2023-05-19T12:49:14.806Z,24.84
2023-05-19T12:50:20.828Z,24.49
2023-05-19T12:51:26.999Z,24.15
2023-05-19T12:52:42.581Z,23.76
2023-05-19T12:53:50.506Z,24.16
2023-05-19T12:55:08.451Z,23.94
2023-05-19T12:56:16.495Z,24.21
2023-05-19T12:57:23.355Z,23.05
2023-05-19T12:58:34.348Z,23.18
2023-05-19T12:59:42.888Z,23.43
2023-05-19T13:00:49.878Z,23.40
2023-05-19T13:02:00.395Z,23.51
2023-05-19T13:03:10.333Z,23.47
2023-05-19T13:04:17.679Z,23.74
2023-05-19T13:05:24.733Z,23.88
2023-05-19T13:06:33.453Z,23.78
2023-05-19T13:07:40.256Z,23.45
2023-05-19T13:08:49.688Z,23.55
2023-05-19T13:09:57.024Z,23.59
2023-05-19T13:11:04.635Z,22.98
2023-05-19T13:12:11.316Z,23.03
2023-05-19T13:13:18.325Z,23.83
2023-05-19T13:14:24.654Z,24.52
2023-05-19T13:15:37.688Z,24.45
2023-05-19T13:16:43.860Z,24.49
2023-05-19T13:17:50.703Z,24.49
2023-05-19T13:18:56.859Z,24.49
2023-05-19T13:20:05.145Z,24.32
2023-05-19T13:21:11.192Z,22.49
2023-05-19T13:22:17.152Z,21.79
2023-05-19T13:23:23.273Z,21.15
2023-05-19T13:24:29.603Z,20.22
2023-05-19T13:25:36.670Z,18.91
2023-05-19T13:26:42.876Z,19.09
2023-05-19T13:27:49.770Z,19.10
2023-05-19T13:28:56.293Z,18.68
2023-05-19T13:30:03.117Z,17.95
2023-05-19T13:31:09.458Z,17.39
2023-05-19T13:32:15.849Z,15.71
2023-05-19T13:33:22.662Z,15.39
2023-05-19T13:34:29.342Z,15.48
2023-05-19T13:35:39.097Z,15.87
2023-05-19T13:36:49.705Z,16.17
2023-05-19T13:37:57.662Z,16.48
2023-05-19T13:39:04.472Z,16.40
2023-05-19T13:40:16.215Z,17.38
2023-05-19T13:41:29.666Z,17.06
2023-05-19T13:42:36.685Z,16.68
2023-05-19T13:43:42.596Z,16.08
2023-05-19T13:44:49.000Z,16.49
2023-05-19T13:45:55.073Z,15.87
2023-05-19T13:47:01.273Z,16.20
2023-05-19T13:48:11.501Z,16.27
2023-05-19T13:49:18.720Z,16.15
2023-05-19T13:50:25.177Z,15.41
2023-05-19T13:51:31.591Z,15.36
2023-05-19T13:52:37.965Z,14.96
2023-05-19T13:53:44.145Z,14.58
2023-05-19T13:54:51.199Z,14.47
2023-05-19T13:55:57.684Z,14.52
2023-05-19T13:57:04.186Z,14.80
2023-05-19T13:58:11.322Z,14.52
2023-05-19T13:59:21.464Z,14.15
2023-05-19T14:00:27.893Z,14.47
2023-05-19T14:01:34.639Z,14.79
2023-05-19T14:02:41.092Z,14.31
2023-05-19T14:03:48.959Z,14.18
2023-05-19T14:04:57.141Z,13.74
2023-05-19T14:06:04.910Z,13.84
2023-05-19T14:07:11.196Z,13.87
2023-05-19T14:08:19.875Z,13.84
2023-05-19T14:09:27.431Z,13.91
2023-05-19T14:10:36.000Z,14.07
2023-05-19T14:11:42.221Z,14.71
2023-05-19T14:13:12.242Z,14.60
2023-05-19T14:14:14.915Z,14.20
2023-05-19T14:15:21.894Z,13.84
2023-05-19T14:16:29.047Z,13.69
2023-05-19T14:17:35.183Z,13.82
2023-05-19T14:18:41.753Z,13.89
2023-05-19T14:19:48.135Z,13.53
2023-05-19T14:20:54.431Z,12.99
2023-05-19T14:22:00.631Z,13.13
2023-05-19T14:23:07.007Z,13.10
2023-05-19T14:24:13.504Z,12.83
2023-05-19T14:25:20.342Z,12.80
2023-05-19T14:26:28.618Z,13.10
2023-05-19T14:27:35.607Z,13.23
2023-05-19T14:28:42.517Z,13.09
2023-05-19T14:29:49.787Z,13.31
2023-05-19T14:30:56.212Z,13.26
2023-05-19T14:32:03.352Z,13.23
2023-05-19T14:33:10.029Z,13.05
2023-05-19T14:34:22.235Z,13.21
2023-05-19T14:35:28.828Z,13.31
2023-05-19T14:36:36.004Z,13.08
2023-05-19T14:37:41.965Z,13.05
2023-05-19T14:38:47.785Z,12.98
2023-05-19T14:39:54.685Z,12.87
2023-05-19T14:41:00.800Z,12.82
2023-05-19T14:42:08.323Z,12.82
2023-05-19T14:43:15.715Z,12.61
2023-05-19T14:44:21.847Z,12.36
2023-05-19T14:45:31.075Z,11.98
2023-05-19T14:46:37.072Z,11.89